Time;durP1;ratioP1;P1;durP2;ratioP2;P2;SDS_P1;SDS_P2;PMS_P1;PMS_P2;Temp;Humidity;BMP_temperature;BMP_pressure;BME280_temperature;BME280_humidity;BME280_pressure;Samples;Min_cycle;Max_cycle;Signal;HPM_P1;HPM_P2
2023/04/24 00:02:01;;;;;;;;;;;;;;;12.57;71.37;100351.88;107413;1259;126021;-78
2023/04/24 00:04:28;;;;;;;;;;;;;;;12.55;71.36;100354.86;108240;1257;59976;-78
2023/04/24 00:06:56;;;;;;;;;;;;;;;12.51;71.40;100354.11;108609;1257;125712;-78
2023/04/24 00:09:24;;;;;;;;;;;;;;;12.48;71.53;100353.55;107589;1257;65471;-78
2023/04/24 00:11:51;;;;;;;;;;;;;;;12.46;71.73;100354.24;107612;1256;70990;-78
2023/04/24 00:14:18;;;;;;;;;;;;;;;12.44;71.70;100352.28;107279;1257;125241;-79
2023/04/24 00:16:45;;;;;;;;;;;;;;;12.41;71.83;100350.48;107239;1257;293570;-78
2023/04/24 00:19:12;;;;;;;;;;;;;;;12.39;71.96;100350.83;107539;1257;124994;-80
2023/04/24 00:21:39;;;;;;;;;;;;;;;12.39;72.06;100350.48;107600;1257;66860;-79
2023/04/24 00:24:08;;;;;;;;;;;;;;;12.39;72.22;100347.65;107719;1264;71835;-80
2023/04/24 00:26:35;;;;;;;;;;;;;;;12.39;72.28;100347.30;107649;1258;124207;-80
2023/04/24 00:29:02;;;;;;;;;;;;;;;12.41;72.47;100347.32;107693;1258;59851;-80
2023/04/24 00:31:29;;;;;;;;;;;;;;;12.42;72.56;100346.09;107692;1260;124162;-80
2023/04/24 00:33:56;;;;;;;;;;;;;;;12.44;72.46;100347.17;107883;1263;65633;-80
2023/04/24 00:36:23;;;;;;;;;;;;;;;12.44;72.60;100351.05;107865;1257;125519;-80
2023/04/24 00:38:50;;;;;;;;;;;;;;;12.42;72.54;100349.96;107910;1257;59984;-80
2023/04/24 00:41:17;;;;;;;;;;;;;;;12.41;72.65;100347.49;107921;1257;60985;-80
2023/04/24 00:43:44;;;;;;;;;;;;;;;12.40;72.77;100348.89;107716;1257;125567;-80
2023/04/24 00:46:11;;;;;;;;;;;;;;;12.40;72.82;100344.33;107834;1257;65535;-80
2023/04/24 00:48:41;;;;;;;;;;;;;;;12.42;72.87;100340.45;107721;1256;125557;-80
2023/04/24 00:51:08;;;;;;;;;;;;;;;12.41;72.86;100340.63;107697;1262;61271;-80
2023/04/24 00:53:35;;;;;;;;;;;;;;;12.40;72.87;100344.13;107850;1257;61234;-80
2023/04/24 00:56:02;;;;;;;;;;;;;;;12.37;72.90;100346.04;108588;1257;125232;-80
2023/04/24 00:58:30;;;;;;;;;;;;;;;12.35;72.94;100344.24;108688;1257;65731;-80
2023/04/24 01:00:57;;;;;;;;;;;;;;;12.32;73.06;100338.23;108654;1257;125004;-79
2023/04/24 01:03:28;;;;;;;;;;;;;;;12.25;72.94;100342.55;108636;1257;59785;-79
2023/04/24 01:05:55;;;;;;;;;;;;;;;12.18;72.91;100343.01;108719;1257;61297;-79
2023/04/24 01:08:26;;;;;;;;;;;;;;;12.13;73.24;100348.58;108530;1257;125391;-79
2023/04/24 01:10:53;;;;;;;;;;;;;;;12.12;73.28;100351.20;108673;1257;67347;-80
2023/04/24 01:13:20;;;;;;;;;;;;;;;12.10;73.44;100346.79;108638;1257;125498;-79
2023/04/24 01:15:47;;;;;;;;;;;;;;;12.05;73.34;100344.42;108771;1256;60107;-79
2023/04/24 01:18:14;;;;;;;;;;;;;;;12.00;73.46;100345.61;108797;1257;61573;-79
2023/04/24 01:20:42;;;;;;;;;;;;;;;11.97;73.38;100350.31;108769;1256;125741;-79
2023/04/24 01:23:09;;;;;;;;;;;;;;;11.92;73.29;100346.91;108795;1257;67489;-79
2023/04/24 01:25:36;;;;;;;;;;;;;;;11.84;73.27;100346.77;108585;1260;125822;-79
2023/04/24 01:28:03;;;;;;;;;;;;;;;11.76;73.41;100349.48;108702;1257;59686;-79
2023/04/24 01:30:30;;;;;;;;;;;;;;;11.70;73.62;100350.63;108743;1256;124838;-79
2023/04/24 01:32:57;;;;;;;;;;;;;;;11.66;73.66;100346.52;108795;1256;73404;-79
2023/04/24 01:35:24;;;;;;;;;;;;;;;11.60;73.76;100349.94;108772;1257;65478;-79
2023/04/24 01:37:51;;;;;;;;;;;;;;;11.58;74.00;100351.68;108772;1257;125406;-80
2023/04/24 01:40:18;;;;;;;;;;;;;;;11.56;74.06;100344.81;108832;1256;59511;-80
2023/04/24 01:42:45;;;;;;;;;;;;;;;11.56;74.27;100341.27;108691;1256;124880;-78
2023/04/24 01:45:13;;;;;;;;;;;;;;;11.59;74.42;100337.98;108862;1257;74760;-78
2023/04/24 01:47:40;;;;;;;;;;;;;;;11.64;74.35;100338.58;108881;1256;65920;-79
2023/04/24 01:50:07;;;;;;;;;;;;;;;11.69;74.49;100341.10;108696;1263;125323;-78
2023/04/24 01:52:35;;;;;;;;;;;;;;;11.73;74.50;100337.48;108760;1257;60393;-78
2023/04/24 01:55:03;;;;;;;;;;;;;;;11.74;74.43;100336.79;108772;1257;125485;-80
2023/04/24 01:57:31;;;;;;;;;;;;;;;11.77;74.52;100330.15;108765;1257;74528;-80
2023/04/24 01:59:58;;;;;;;;;;;;;;;11.83;74.61;100329.52;108820;1256;66808;-81
2023/04/24 02:02:27;;;;;;;;;;;;;;;11.87;74.48;100324.47;108566;1258;125308;-80
2023/04/24 02:04:54;;;;;;;;;;;;;;;11.84;74.27;100324.10;108785;1256;59928;-78
2023/04/24 02:07:21;;;;;;;;;;;;;;;11.77;74.13;100321.52;108716;1258;125704;-78
2023/04/24 02:09:48;;;;;;;;;;;;;;;11.68;74.11;100323.35;108836;1257;75240;-78
2023/04/24 02:12:15;;;;;;;;;;;;;;;11.61;74.20;100319.20;108855;1256;65880;-78
2023/04/24 02:14:42;;;;;;;;;;;;;;;11.54;74.30;100309.63;108704;1257;125073;-77
2023/04/24 02:17:09;;;;;;;;;;;;;;;11.48;74.32;100308.84;108799;1257;59399;-77
2023/04/24 02:19:36;;;;;;;;;;;;;;;11.42;74.43;100301.38;108756;1257;124854;-78
2023/04/24 02:22:03;;;;;;;;;;;;;;;11.34;74.57;100296.86;108859;1257;75179;-78
2023/04/24 02:24:30;;;;;;;;;;;;;;;11.25;74.61;100295.16;108702;1257;126152;-78
2023/04/24 02:26:57;;;;;;;;;;;;;;;11.18;74.61;100292.93;108814;1257;71733;-78
2023/04/24 02:29:24;;;;;;;;;;;;;;;11.13;74.82;100287.95;108814;1256;59602;-78
2023/04/24 02:31:51;;;;;;;;;;;;;;;11.09;74.95;100285.95;108565;1256;125380;-78
2023/04/24 02:34:18;;;;;;;;;;;;;;;11.07;75.05;100292.59;108606;1263;73415;-78
2023/04/24 02:36:45;;;;;;;;;;;;;;;11.06;75.14;100292.05;108568;1257;125441;-78
2023/04/24 02:39:13;;;;;;;;;;;;;;;11.06;75.24;100283.98;108854;1256;72700;-78
2023/04/24 02:41:40;;;;;;;;;;;;;;;11.02;75.18;100282.84;108862;1257;59438;-78
2023/04/24 02:44:07;;;;;;;;;;;;;;;10.98;75.17;100287.71;108662;1259;125475;-78
2023/04/24 02:46:34;;;;;;;;;;;;;;;10.96;75.36;100288.91;108697;1257;72424;-77
2023/04/24 02:49:01;;;;;;;;;;;;;;;10.94;75.41;100286.60;108727;1256;124861;-77
2023/04/24 02:51:28;;;;;;;;;;;;;;;10.89;75.42;100285.30;108850;1256;72349;-77
2023/04/24 02:53:55;;;;;;;;;;;;;;;10.87;75.58;100281.93;108783;1256;59625;-77
2023/04/24 02:56:22;;;;;;;;;;;;;;;10.91;75.69;100278.65;108691;1257;125444;-77
2023/04/24 02:58:49;;;;;;;;;;;;;;;10.91;75.66;100276.55;108694;1257;75096;-78
2023/04/24 03:01:16;;;;;;;;;;;;;;;10.92;75.72;100276.38;108504;1256;124801;-78
2023/04/24 03:03:43;;;;;;;;;;;;;;;10.89;75.67;100273.19;107612;1256;71415;-78
2023/04/24 03:06:10;;;;;;;;;;;;;;;10.89;75.78;100273.17;107607;1257;59372;-77
2023/04/24 03:08:37;;;;;;;;;;;;;;;10.88;75.72;100272.80;107226;1256;125177;-78
2023/04/24 03:11:05;;;;;;;;;;;;;;;10.86;75.80;100276.65;107346;1257;74687;-79
2023/04/24 03:13:31;;;;;;;;;;;;;;;10.89;75.91;100279.33;107472;1256;125003;-79
2023/04/24 03:15:59;;;;;;;;;;;;;;;10.90;75.89;100276.52;107667;1256;72604;-78
2023/04/24 03:18:26;;;;;;;;;;;;;;;10.91;75.94;100270.59;107549;1257;125115;-78
2023/04/24 03:20:53;;;;;;;;;;;;;;;10.95;75.89;100264.48;107747;1256;60586;-78
2023/04/24 03:23:20;;;;;;;;;;;;;;;10.96;75.91;100270.31;107709;1257;73418;-78
2023/04/24 03:25:48;;;;;;;;;;;;;;;10.98;75.88;100267.89;107487;1257;125766;-77
2023/04/24 03:28:15;;;;;;;;;;;;;;;10.99;75.73;100269.65;107752;1256;72994;-78
2023/04/24 03:30:42;;;;;;;;;;;;;;;10.95;75.59;100270.64;107913;1260;125643;-79
2023/04/24 03:33:09;;;;;;;;;;;;;;;10.92;75.63;100273.91;107507;1256;59427;-79
2023/04/24 03:35:36;;;;;;;;;;;;;;;10.92;75.68;100275.15;107459;1256;73352;-78
2023/04/24 03:38:04;;;;;;;;;;;;;;;10.94;75.71;100272.55;107464;1256;125779;-78
2023/04/24 03:40:33;;;;;;;;;;;;;;;10.93;75.62;100274.63;107666;1256;73048;-78
2023/04/24 03:43:00;;;;;;;;;;;;;;;10.90;75.53;100274.96;107399;1256;125215;-78
2023/04/24 03:45:27;;;;;;;;;;;;;;;10.88;75.60;100271.40;107453;1257;61262;-79
2023/04/24 03:47:54;;;;;;;;;;;;;;;10.86;75.61;100266.30;107788;1256;73077;-76
2023/04/24 03:50:21;;;;;;;;;;;;;;;10.83;75.57;100265.20;107537;1256;125072;-76
2023/04/24 03:52:48;;;;;;;;;;;;;;;10.81;75.49;100264.45;107820;1257;72471;-78
2023/04/24 03:55:15;;;;;;;;;;;;;;;10.75;75.48;100264.00;107915;1259;125460;-79
2023/04/24 03:57:42;;;;;;;;;;;;;;;10.71;75.49;100267.09;107917;1262;59734;-78
2023/04/24 04:00:09;;;;;;;;;;;;;;;10.68;75.50;100273.90;107486;1257;73817;-79
2023/04/24 04:02:36;;;;;;;;;;;;;;;10.66;75.55;100271.21;107419;1257;124581;-79
2023/04/24 04:05:24;;;;;;;;;;;;;;;10.65;75.56;100264.20;107953;1257;72782;-79
2023/04/24 04:08:11;;;;;;;;;;;;;;;10.62;75.60;100266.77;107215;1264;125062;-81
2023/04/24 04:10:38;;;;;;;;;;;;;;;10.63;75.64;100267.14;107234;1264;59993;-79
2023/04/24 04:13:06;;;;;;;;;;;;;;;10.68;75.78;100264.93;107074;1264;125038;-80
2023/04/24 04:15:33;;;;;;;;;;;;;;;10.73;75.83;100263.09;107331;1263;65533;-80
2023/04/24 04:18:00;;;;;;;;;;;;;;;10.76;75.68;100264.38;107249;1265;73324;-78
2023/04/24 04:20:27;;;;;;;;;;;;;;;10.78;75.70;100262.12;107124;1264;125378;-79
2023/04/24 04:22:53;;;;;;;;;;;;;;;10.79;75.66;100264.78;107205;1264;61333;-81
2023/04/24 04:25:20;;;;;;;;;;;;;;;10.79;75.66;100266.02;106840;1264;124889;-79
2023/04/24 04:27:48;;;;;;;;;;;;;;;10.83;75.66;100267.64;106758;1270;67345;-79
2023/04/24 04:30:15;;;;;;;;;;;;;;;10.87;75.68;100273.86;107202;1264;71399;-79
2023/04/24 04:32:42;;;;;;;;;;;;;;;10.93;75.63;100271.30;107118;1265;125235;-79
2023/04/24 04:35:09;;;;;;;;;;;;;;;10.95;75.48;100270.29;107056;1264;61094;-79
2023/04/24 04:37:36;;;;;;;;;;;;;;;10.98;75.35;100265.75;107229;1263;125195;-81
2023/04/24 04:40:07;;;;;;;;;;;;;;;11.01;75.33;100273.73;106935;1264;65872;-82
2023/04/24 04:42:34;;;;;;;;;;;;;;;11.07;75.29;100267.13;106803;1269;125554;-81
2023/04/24 04:45:02;;;;;;;;;;;;;;;11.14;75.21;100266.71;107142;1256;59348;-81
2023/04/24 04:47:32;;;;;;;;;;;;;;;11.18;75.15;100266.79;107286;1257;61132;-82
2023/04/24 04:50:07;;;;;;;;;;;;;;;11.28;75.22;100268.15;107174;1258;125633;-84
2023/04/24 04:52:34;;;;;;;;;;;;;;;11.37;75.04;100273.89;107438;1256;67086;-84
2023/04/24 04:55:07;;;;;;;;;;;;;;;11.43;74.92;100277.34;107272;1257;125146;-83
2023/04/24 04:57:52;;;;;;;;;;;;;;;11.44;74.71;100270.83;107144;1257;59987;-85
2023/04/24 05:00:28;;;;;;;;;;;;;;;11.51;74.74;100268.63;107322;1260;125378;-86
2023/04/24 05:02:55;;;;;;;;;;;;;;;11.57;74.77;100269.60;107215;1259;73430;-85
2023/04/24 05:05:23;;;;;;;;;;;;;;;11.68;74.70;100266.75;107277;1256;67495;-83
2023/04/24 05:07:49;;;;;;;;;;;;;;;11.79;74.60;100264.95;107509;1257;124119;-83
2023/04/24 05:10:16;;;;;;;;;;;;;;;11.89;74.45;100256.31;107351;1264;60965;-83
2023/04/24 05:12:43;;;;;;;;;;;;;;;11.92;74.26;100255.64;107314;1259;124371;-86
2023/04/24 05:15:11;;;;;;;;;;;;;;;11.97;74.09;100257.98;107435;1256;75229;-83
2023/04/24 05:17:39;;;;;;;;;;;;;;;12.06;74.08;100254.40;107329;1257;67090;-84
2023/04/24 05:20:06;;;;;;;;;;;;;;;12.16;73.95;100255.02;107415;1257;124061;-84
2023/04/24 05:22:33;;;;;;;;;;;;;;;12.24;73.88;100257.23;107659;1256;59701;-83
2023/04/24 05:25:00;;;;;;;;;;;;;;;12.34;73.69;100259.27;107586;1257;124214;-83
2023/04/24 05:27:27;;;;;;;;;;;;;;;12.37;73.42;100261.56;107367;1263;75326;-81
2023/04/24 05:29:55;;;;;;;;;;;;;;;12.28;72.90;100256.91;107302;1259;67024;-81
2023/04/24 05:32:23;;;;;;;;;;;;;;;12.26;73.12;100254.42;107014;1256;124748;-83
2023/04/24 05:34:50;;;;;;;;;;;;;;;12.24;73.00;100257.05;107108;1256;62115;-83
2023/04/24 05:37:18;;;;;;;;;;;;;;;12.22;73.01;100255.27;107201;1256;124889;-82
2023/04/24 05:39:45;;;;;;;;;;;;;;;12.18;73.01;100258.75;107295;1257;74762;-82
2023/04/24 05:42:12;;;;;;;;;;;;;;;12.17;73.06;100255.23;107274;1262;65710;-82
2023/04/24 05:44:39;;;;;;;;;;;;;;;12.19;72.99;100252.24;107193;1256;125134;-82
2023/04/24 05:47:06;;;;;;;;;;;;;;;12.15;72.88;100253.98;107361;1256;60544;-82
2023/04/24 05:49:33;;;;;;;;;;;;;;;12.11;72.81;100246.20;107403;1256;124997;-82
2023/04/24 05:52:03;;;;;;;;;;;;;;;12.09;72.86;100246.52;107606;1259;73034;-82
2023/04/24 05:54:30;;;;;;;;;;;;;;;12.10;73.05;100246.52;107223;1256;125436;-82
2023/04/24 05:56:58;;;;;;;;;;;;;;;12.14;72.90;100245.86;108845;1256;72726;-82
2023/04/24 05:59:25;;;;;;;;;;;;;;;12.18;72.88;100247.66;108950;1256;59336;-82
2023/04/24 06:01:52;;;;;;;;;;;;;;;12.27;73.04;100243.88;108835;1256;124822;-81
2023/04/24 06:04:19;;;;;;;;;;;;;;;12.35;72.90;100246.77;108246;1256;73083;-82
2023/04/24 06:06:50;;;;;;;;;;;;;;;12.42;72.88;100245.80;107314;1256;124956;-82
2023/04/24 06:09:17;;;;;;;;;;;;;;;12.51;72.85;100241.82;107299;1256;71661;-82
2023/04/24 06:11:45;;;;;;;;;;;;;;;12.62;72.74;100237.34;107497;1256;61136;-81
2023/04/24 06:14:12;;;;;;;;;;;;;;;12.72;72.64;100232.15;107722;1256;125570;-82
2023/04/24 06:16:42;;;;;;;;;;;;;;;12.85;72.49;100234.35;107713;1256;73554;-81
2023/04/24 06:19:09;;;;;;;;;;;;;;;12.88;72.06;100237.73;107710;1257;124598;-81
2023/04/24 06:21:37;;;;;;;;;;;;;;;12.85;71.81;100244.56;107670;1257;71087;-81
2023/04/24 06:24:04;;;;;;;;;;;;;;;12.83;71.79;100245.62;107489;1257;61268;-83
2023/04/24 06:26:31;;;;;;;;;;;;;;;12.88;71.93;100245.99;107321;1257;124517;-81
2023/04/24 06:28:59;;;;;;;;;;;;;;;12.89;71.83;100239.31;107560;1257;73698;-80
2023/04/24 06:31:26;;;;;;;;;;;;;;;12.85;71.84;100244.92;107395;1257;124199;-79
2023/04/24 06:33:54;;;;;;;;;;;;;;;12.82;72.00;100244.73;107686;1256;72720;-82
2023/04/24 06:36:20;;;;;;;;;;;;;;;12.82;71.96;100238.21;107612;1256;124910;-80
2023/04/24 06:38:47;;;;;;;;;;;;;;;12.76;71.78;100238.16;108695;1256;60166;-80
2023/04/24 06:41:33;;;;;;;;;;;;;;;12.71;71.80;100240.23;108872;1261;73403;-82
2023/04/24 06:44:00;;;;;;;;;;;;;;;12.68;71.95;100239.49;108792;1256;124755;-82
2023/04/24 06:46:27;;;;;;;;;;;;;;;12.65;72.04;100233.33;108869;1256;72362;-82
2023/04/24 06:48:55;;;;;;;;;;;;;;;12.61;72.04;100231.35;108755;1256;125019;-82
2023/04/24 06:51:23;;;;;;;;;;;;;;;12.55;72.09;100227.61;108892;1256;59046;-80
2023/04/24 06:53:51;;;;;;;;;;;;;;;12.48;72.05;100227.19;108898;1260;73226;-81
2023/04/24 06:56:18;;;;;;;;;;;;;;;12.44;72.30;100222.05;108815;1256;124955;-79
2023/04/24 06:58:45;;;;;;;;;;;;;;;12.50;72.55;100218.92;108852;1256;73257;-80
2023/04/24 07:01:12;;;;;;;;;;;;;;;12.48;72.14;100215.23;108772;1256;125446;-80
2023/04/24 07:03:39;;;;;;;;;;;;;;;12.40;72.23;100209.88;108842;1256;60130;-80
2023/04/24 07:06:06;;;;;;;;;;;;;;;12.39;72.39;100208.47;108845;1256;74717;-80
2023/04/24 07:08:33;;;;;;;;;;;;;;;12.40;72.48;100206.89;108858;1256;124683;-80
2023/04/24 07:11:00;;;;;;;;;;;;;;;12.46;72.79;100205.89;108826;1256;72532;-80
2023/04/24 07:13:27;;;;;;;;;;;;;;;12.54;72.81;100205.06;108646;1256;125412;-80
2023/04/24 07:15:54;;;;;;;;;;;;;;;12.59;72.83;100203.70;108760;1256;59541;-80
2023/04/24 07:18:21;;;;;;;;;;;;;;;12.60;72.61;100203.01;108704;1260;125391;-81
2023/04/24 07:20:51;;;;;;;;;;;;;;;12.55;72.62;100195.58;108800;1258;67073;-80
2023/04/24 07:23:19;;;;;;;;;;;;;;;12.52;72.58;100195.02;108769;1257;72483;-80
2023/04/24 07:25:46;;;;;;;;;;;;;;;12.56;72.73;100195.92;108662;1257;125514;-82
2023/04/24 07:28:13;;;;;;;;;;;;;;;12.69;73.06;100203.41;108813;1256;59184;-82
2023/04/24 07:30:40;;;;;;;;;;;;;;;12.85;73.13;100201.25;108688;1256;125045;-80
2023/04/24 07:33:07;;;;;;;;;;;;;;;13.03;73.24;100198.55;108745;1256;65852;-80
2023/04/24 07:35:35;;;;;;;;;;;;;;;13.23;73.02;100188.28;108752;1256;72688;-82
2023/04/24 07:38:02;;;;;;;;;;;;;;;13.37;72.87;100189.77;108615;1256;125094;-82
2023/04/24 07:40:31;;;;;;;;;;;;;;;13.47;72.52;100189.29;108899;1256;59381;-82
2023/04/24 07:42:58;;;;;;;;;;;;;;;13.58;72.53;100190.21;108872;1256;124743;-81
2023/04/24 07:45:27;;;;;;;;;;;;;;;13.78;72.70;100187.11;108808;1256;65729;-82
2023/04/24 07:47:56;;;;;;;;;;;;;;;14.04;72.62;100190.52;108858;1256;71124;-82
2023/04/24 07:50:23;;;;;;;;;;;;;;;14.28;72.28;100192.85;108772;1259;124858;-81
2023/04/24 07:52:50;;;;;;;;;;;;;;;14.50;72.13;100187.22;108962;1257;60017;-82
2023/04/24 07:55:17;;;;;;;;;;;;;;;14.65;71.73;100186.89;108735;1256;124410;-82
2023/04/24 07:57:44;;;;;;;;;;;;;;;14.72;71.29;100176.80;108832;1256;65790;-82
2023/04/24 08:00:12;;;;;;;;;;;;;;;14.79;71.16;100173.27;108858;1256;72693;-83
2023/04/24 08:02:39;;;;;;;;;;;;;;;14.86;70.81;100172.73;108821;1257;124161;-82
2023/04/24 08:05:07;;;;;;;;;;;;;;;14.97;70.88;100168.64;108857;1256;59449;-81
2023/04/24 08:07:35;;;;;;;;;;;;;;;15.12;70.87;100159.41;108843;1256;124172;-81
2023/04/24 08:10:02;;;;;;;;;;;;;;;15.32;70.78;100160.77;108946;1256;65794;-83
2023/04/24 08:12:31;;;;;;;;;;;;;;;15.51;70.66;100160.14;108822;1256;124181;-82
2023/04/24 08:14:58;;;;;;;;;;;;;;;15.61;70.16;100170.71;108949;1256;59327;-82
2023/04/24 08:17:25;;;;;;;;;;;;;;;15.59;69.88;100168.77;108945;1256;59199;-82
2023/04/24 08:19:53;;;;;;;;;;;;;;;15.65;69.82;100162.91;108844;1258;124200;-81
2023/04/24 08:22:20;;;;;;;;;;;;;;;15.85;70.01;100158.41;108322;1256;67635;-81
2023/04/24 08:24:47;;;;;;;;;;;;;;;16.18;69.97;100156.95;107234;1262;124499;-81
2023/04/24 08:27:14;;;;;;;;;;;;;;;16.51;69.73;100156.85;108877;1256;58987;-81
2023/04/24 08:29:41;;;;;;;;;;;;;;;16.84;69.48;100158.86;108827;1256;59180;-83
2023/04/24 08:32:09;;;;;;;;;;;;;;;17.16;69.00;100160.67;108786;1256;124607;-83
2023/04/24 08:34:36;;;;;;;;;;;;;;;17.39;68.43;100153.83;108913;1256;65822;-82
2023/04/24 08:37:03;;;;;;;;;;;;;;;17.58;68.16;100153.58;107572;1256;125219;-83
2023/04/24 08:39:30;;;;;;;;;;;;;;;17.87;68.21;100150.54;108818;1258;59970;-83
2023/04/24 08:41:57;;;;;;;;;;;;;;;18.14;67.82;100150.34;108464;1256;60138;-83
2023/04/24 08:44:24;;;;;;;;;;;;;;;18.31;67.09;100155.55;107376;1256;124802;-83
2023/04/24 08:46:52;;;;;;;;;;;;;;;18.31;66.33;100158.06;107354;1256;66062;-82
2023/04/24 08:49:19;;;;;;;;;;;;;;;18.22;66.10;100146.46;107403;1256;72424;-85
2023/04/24 08:51:47;;;;;;;;;;;;;;;18.29;66.18;100146.01;107468;1257;60417;-81
2023/04/24 08:54:14;;;;;;;;;;;;;;;18.38;66.13;100146.38;107475;1256;60178;-82
2023/04/24 08:56:42;;;;;;;;;;;;;;;18.43;65.90;100148.79;107542;1256;124406;-82
2023/04/24 08:59:09;;;;;;;;;;;;;;;18.49;65.77;100157.39;107532;1258;67117;-83
2023/04/24 09:01:36;;;;;;;;;;;;;;;18.50;65.60;100154.17;107610;1256;124448;-82
2023/04/24 09:04:03;;;;;;;;;;;;;;;18.52;65.36;100158.77;107534;1258;61139;-83
2023/04/24 09:06:32;;;;;;;;;;;;;;;18.52;65.24;100161.62;107469;1256;124338;-82
2023/04/24 09:09:00;;;;;;;;;;;;;;;18.55;65.14;100161.73;107843;1261;75156;-82
2023/04/24 09:11:33;;;;;;;;;;;;;;;18.57;64.94;100159.74;107457;1256;67062;-82
2023/04/24 09:14:00;;;;;;;;;;;;;;;18.59;64.74;100159.34;107333;1256;124880;-82
2023/04/24 09:16:29;;;;;;;;;;;;;;;18.57;64.49;100153.86;107400;1256;61523;-82
2023/04/24 09:18:56;;;;;;;;;;;;;;;18.43;64.32;100151.45;107421;1261;124328;-84
2023/04/24 09:21:24;;;;;;;;;;;;;;;18.34;64.29;100153.02;107726;1257;74701;-84
2023/04/24 09:24:02;;;;;;;;;;;;;;;18.22;64.37;100150.38;107720;1256;65792;-84
2023/04/24 09:26:31;;;;;;;;;;;;;;;18.17;64.38;100148.66;107582;1257;124627;-84
2023/04/24 09:28:58;;;;;;;;;;;;;;;18.09;64.18;100147.20;107836;1256;61145;-84
2023/04/24 09:31:26;;;;;;;;;;;;;;;17.97;64.27;100144.19;107764;1257;124933;-84
2023/04/24 09:33:54;;;;;;;;;;;;;;;17.87;64.26;100132.45;107850;1260;75253;-82
2023/04/24 09:36:28;;;;;;;;;;;;;;;17.81;64.40;100129.14;107889;1256;67064;-82
2023/04/24 09:38:59;;;;;;;;;;;;;;;17.78;64.40;100126.34;108700;1259;72731;-82
2023/04/24 09:41:26;;;;;;;;;;;;;;;17.81;64.52;100126.65;108758;1260;59188;-82
2023/04/24 09:43:56;;;;;;;;;;;;;;;17.88;64.64;100126.21;108680;1259;124442;-82
2023/04/24 09:46:29;;;;;;;;;;;;;;;18.01;64.67;100119.27;107916;1259;74388;-81
2023/04/24 09:48:56;;;;;;;;;;;;;;;18.05;64.31;100117.79;108480;1261;124613;-82
2023/04/24 09:51:49;;;;;;;;;;;;;;;18.03;64.31;100119.79;107802;1259;72880;-82
2023/04/24 09:54:19;;;;;;;;;;;;;;;18.11;64.53;100122.66;107446;1259;59939;-82
2023/04/24 09:56:47;;;;;;;;;;;;;;;18.28;64.70;100120.42;107113;1263;124583;-83
2023/04/24 09:59:15;;;;;;;;;;;;;;;18.44;64.64;100119.29;106925;1259;73485;-83
2023/04/24 10:01:43;;;;;;;;;;;;;;;18.64;64.44;100111.11;106920;1265;125474;-83
2023/04/24 10:04:20;;;;;;;;;;;;;;;18.78;64.11;100112.45;107256;1259;73748;-83
2023/04/24 10:06:48;;;;;;;;;;;;;;;18.95;64.11;100107.90;106956;1259;124462;-83
2023/04/24 10:09:17;;;;;;;;;;;;;;;19.07;63.71;100099.99;107622;1262;61044;-83
2023/04/24 10:11:45;;;;;;;;;;;;;;;19.14;63.54;100097.00;107366;1256;75267;-83
2023/04/24 10:14:13;;;;;;;;;;;;;;;19.22;63.51;100095.60;107395;1256;124483;-83
2023/04/24 10:16:41;;;;;;;;;;;;;;;19.29;63.43;100095.63;107499;1256;73818;-83
2023/04/24 10:19:08;;;;;;;;;;;;;;;19.29;63.33;100091.38;107718;1256;125192;-83
2023/04/24 10:21:42;;;;;;;;;;;;;;;19.22;63.10;100092.39;107653;1257;60138;-81
2023/04/24 10:24:10;;;;;;;;;;;;;;;19.12;63.12;100091.17;107531;1256;73800;-81
2023/04/24 10:26:40;;;;;;;;;;;;;;;19.11;63.20;100087.11;107417;1260;124442;-81
2023/04/24 10:29:11;;;;;;;;;;;;;;;19.16;63.32;100087.71;107445;1256;72706;-83
2023/04/24 10:31:40;;;;;;;;;;;;;;;19.26;63.35;100085.40;107305;1256;124323;-83
2023/04/24 10:34:07;;;;;;;;;;;;;;;19.35;63.31;100087.48;107907;1256;60699;-83
2023/04/24 10:36:34;;;;;;;;;;;;;;;19.44;63.25;100082.49;107536;1256;124446;-82
2023/04/24 10:39:02;;;;;;;;;;;;;;;19.61;63.54;100079.44;107671;1256;68368;-83
2023/04/24 10:41:30;;;;;;;;;;;;;;;19.86;63.23;100073.90;107622;1256;71365;-83
2023/04/24 10:44:13;;;;;;;;;;;;;;;19.97;62.83;100073.11;107130;1258;123996;-82
2023/04/24 10:46:44;;;;;;;;;;;;;;;19.96;62.35;100072.96;107311;1256;60025;-82
2023/04/24 10:49:11;;;;;;;;;;;;;;;19.85;62.03;100074.11;107337;1257;124940;-82
2023/04/24 10:51:48;;;;;;;;;;;;;;;19.75;62.14;100069.17;107252;1256;66353;-82
2023/04/24 10:54:34;;;;;;;;;;;;;;;19.76;62.53;100067.56;107074;1256;72495;-82
2023/04/24 10:57:25;;;;;;;;;;;;;;;19.87;62.47;100066.59;106999;1258;59334;-82
2023/04/24 11:00:13;;;;;;;;;;;;;;;20.02;62.45;100064.98;107231;1256;59587;-82
2023/04/24 11:02:47;;;;;;;;;;;;;;;20.22;62.53;100056.83;107199;1256;124655;-82
2023/04/24 11:05:16;;;;;;;;;;;;;;;20.38;62.07;100049.80;107201;1260;66978;-83
2023/04/24 11:08:04;;;;;;;;;;;;;;;20.57;61.88;100052.87;107080;1260;124252;-82
2023/04/24 11:10:30;;;;;;;;;;;;;;;20.81;61.72;100051.49;107048;1256;59264;-83
2023/04/24 11:12:57;;;;;;;;;;;;;;;21.06;61.53;100049.89;107855;1256;124738;-82
2023/04/24 11:15:24;;;;;;;;;;;;;;;21.36;61.41;100049.56;107206;1256;73403;-84
2023/04/24 11:17:51;;;;;;;;;;;;;;;21.63;61.00;100041.42;107405;1256;65177;-83
2023/04/24 11:20:18;;;;;;;;;;;;;;;21.82;60.33;100040.63;107349;1257;124507;-83
2023/04/24 11:22:45;;;;;;;;;;;;;;;21.95;59.72;100040.54;107295;1259;61082;-83
2023/04/24 11:25:12;;;;;;;;;;;;;;;22.13;59.46;100038.89;107188;1256;124769;-83
2023/04/24 11:27:40;;;;;;;;;;;;;;;22.26;59.12;100037.55;107321;1256;73079;-82
2023/04/24 11:30:10;;;;;;;;;;;;;;;22.34;58.59;100037.11;107412;1256;67735;-84
2023/04/24 11:32:38;;;;;;;;;;;;;;;22.44;57.83;100036.39;107299;1259;123805;-84
2023/04/24 11:35:06;;;;;;;;;;;;;;;22.49;57.05;100031.39;107568;1257;62092;-84
2023/04/24 11:37:38;;;;;;;;;;;;;;;22.51;56.47;100029.92;107533;1259;124320;-82
2023/04/24 11:40:31;;;;;;;;;;;;;;;22.63;56.42;100028.57;107392;1259;73358;-82
2023/04/24 11:43:03;;;;;;;;;;;;;;;22.83;55.68;100026.77;107268;1260;65724;-81
2023/04/24 11:45:36;;;;;;;;;;;;;;;22.93;55.33;100024.95;107310;1262;70889;-82
2023/04/24 11:48:03;;;;;;;;;;;;;;;23.03;55.08;100025.67;107344;1258;61228;-82
2023/04/24 11:50:30;;;;;;;;;;;;;;;23.09;54.72;100027.44;107371;1256;124291;-81
2023/04/24 11:52:58;;;;;;;;;;;;;;;23.10;54.29;100024.35;107655;1256;60697;-80
2023/04/24 11:55:26;;;;;;;;;;;;;;;23.07;53.91;100023.92;107693;1258;124793;-80
2023/04/24 11:57:56;;;;;;;;;;;;;;;23.06;53.57;100022.71;107727;1256;72417;-81
2023/04/24 12:00:25;;;;;;;;;;;;;;;23.10;53.34;100020.05;107659;1258;61279;-81
2023/04/24 12:03:03;;;;;;;;;;;;;;;23.19;53.10;100019.34;107398;1256;124276;-81
2023/04/24 12:05:31;;;;;;;;;;;;;;;23.26;52.65;100018.17;108959;1256;74657;-81
2023/04/24 12:07:59;;;;;;;;;;;;;;;23.24;52.50;100018.62;108704;1256;124290;-81
2023/04/24 12:10:27;;;;;;;;;;;;;;;23.26;51.86;100016.55;107915;1256;71124;-80
2023/04/24 12:12:55;;;;;;;;;;;;;;;23.15;51.11;100012.00;107212;1259;124558;-80
2023/04/24 12:15:22;;;;;;;;;;;;;;;22.92;50.65;100012.83;106364;1256;1252867;-80
2023/04/24 12:17:50;;;;;;;;;;;;;;;22.70;50.68;100016.17;107537;1256;73579;-81
2023/04/24 12:20:19;;;;;;;;;;;;;;;22.51;50.46;100012.76;107408;1257;124140;-81
2023/04/24 12:22:54;;;;;;;;;;;;;;;22.36;50.51;100010.75;107521;1260;73430;-80
2023/04/24 12:25:24;;;;;;;;;;;;;;;22.36;50.47;100004.89;107551;1260;124845;-80
2023/04/24 12:27:55;;;;;;;;;;;;;;;22.46;50.56;99997.89;107384;1264;62117;-80
2023/04/24 12:30:26;;;;;;;;;;;;;;;22.63;50.36;99990.46;107451;1259;73802;-81